Latest Weather Observations for Point Fawcett

IDD60801

Issued at 5:35 pm CST Sunday 26 October 2014 (issued every 30 minutes, with the page automatically refreshed every 10 minutes)

About weather observations | Map of weather stations | Latest weather observations for NT | Other Formats
Station Details ID: 200731 Name: POINT FAWCETT Lat: -11.76 Lon: 130.03 Height: 6.5 m
Data from the previous 72 hours. | See also: Recent months at Point Fawcett
Date/Time
CST
Temp
°C
App
Temp
°C
Dew
Point
Rel
Hum
%
Delta-T
°C
Wind Press
QNH
hPa
Press
MSL
hPa
Rain
since 9 am
mm
Dir
 
Spd
km/h
Gust
km/h
Spd
kts
Gust
kts
26/05:30pm 30.8 32.1 20.1 53 7.1 NW 13 19 7 10 1010.4 - -
26/05:00pm 31.3 32.5 20.6 53 7.1 NW 15 17 8 9 1010.2 - -
26/04:30pm 31.2 32.0 19.9 51 7.4 WNW 15 19 8 10 1010.0 - -
26/04:00pm 31.2 31.6 18.2 46 8.4 W 13 19 7 10 1010.0 - -
26/03:30pm 31.9 32.4 19.2 47 8.3 W 15 20 8 11 1010.1 - -
26/03:00pm 32.1 33.3 20.0 48 8.0 WSW 13 19 7 10 1010.4 1010.3 -
26/02:30pm 32.1 33.3 20.7 51 7.6 WSW 15 20 8 11 1010.9 - -
26/02:00pm 31.9 33.3 21.1 52 7.2 WSW 15 20 8 11 1011.2 - -
26/01:30pm 31.7 32.5 20.6 51 7.4 WSW 17 24 9 13 1011.7 - -
26/01:00pm 31.6 32.3 20.5 51 7.4 WSW 17 20 9 11 1012.5 - -
26/12:30pm 31.5 32.4 20.1 50 7.5 WSW 15 20 8 11 1013.1 - -
26/12:00pm 31.5 32.4 20.1 50 7.5 WSW 15 20 8 11 1013.6 1013.5 -
26/11:30am 31.3 32.4 19.6 49 7.7 WSW 13 20 7 11 1013.8 - -
26/11:00am 31.1 32.4 19.4 49 7.7 WSW 11 15 6 8 1014.3 - -
26/10:30am 30.7 32.6 20.6 54 6.7 W 11 13 6 7 1014.7 - -
26/10:00am 30.6 32.9 21.4 58 6.2 N 11 15 6 8 1014.9 - -
26/09:30am 29.7 32.1 20.8 58 5.9 NNW 9 11 5 6 1014.9 - -
26/09:00am 29.8 32.4 21.2 60 5.7 NNE 9 11 5 6 1014.9 1014.8 -
26/08:30am 28.7 31.7 22.0 67 4.5 ENE 9 13 5 7 1014.7 - -
26/08:00am 27.5 31.6 22.9 76 3.1 E 6 9 3 5 1014.4 - -
26/07:30am 24.0 27.7 22.3 90 1.1 E 6 7 3 4 1014.1 - -
26/07:00am 22.1 24.8 20.6 91 1.0 ENE 7 9 4 5 1013.8 - -
26/06:30am 21.1 23.0 19.0 88 1.3 ENE 7 7 4 4 1013.7 - -
26/06:00am 21.6 23.8 19.3 87 1.5 ESE 6 7 3 4 1013.5 1013.4 -
26/05:30am 22.6 25.2 20.1 86 1.6 ESE 6 7 3 4 1013.5 - -
26/05:00am 23.7 26.4 21.4 87 1.5 E 9 13 5 7 1013.4 - -
26/04:30am 23.3 25.8 21.0 87 1.5 E 9 11 5 6 1013.1 - -
26/04:00am 22.6 24.8 20.5 88 1.4 E 9 11 5 6 1012.7 - -
26/03:30am 22.3 24.5 19.5 84 1.8 ESE 7 9 4 5 1012.6 - -
26/02:30am 24.3 26.9 20.4 79 2.5 E 7 9 4 5 1012.8 - -
26/02:00am 25.2 27.7 21.1 78 2.7 E 9 13 5 7 1013.3 - -
26/01:30am 25.4 27.9 21.1 77 2.8 E 9 11 5 6 1013.4 - -
26/01:00am 25.5 28.1 21.2 77 2.8 E 9 11 5 6 1013.5 - -
26/12:30am 26.2 28.9 20.7 71 3.6 E 7 13 4 7 1013.5 - -
26/12:00am 26.8 29.3 21.1 71 3.8 NE 9 13 5 7 1013.7 1013.6 -
 
Date/Time
CST
Temp
°C
App
Temp
°C
Dew
Point
Rel
Hum
%
Delta-T
°C
Wind Press
QNH
hPa
Press
MSL
hPa
Rain
since 9 am
mm
Dir
 
Spd
km/h
Gust
km/h
Spd
kts
Gust
kts
25/11:30pm 27.2 29.0 21.2 69 4.0 NE 13 19 7 10 1014.2 - -
25/11:00pm 27.6 29.4 20.4 65 4.7 N 11 15 6 8 1014.2 - -
25/10:30pm 28.0 29.8 20.3 63 5.1 N 11 15 6 8 1014.2 - -
25/10:00pm 28.2 29.9 20.2 62 5.2 N 11 15 6 8 1014.0 - -
25/09:30pm 28.1 30.0 20.6 63 4.9 N 11 17 6 9 1013.5 - -
25/09:00pm 28.4 30.0 21.4 66 4.7 N 15 19 8 10 1013.4 1013.3 -
25/08:30pm 28.3 29.8 21.3 65 4.7 NNW 15 19 8 10 1013.1 - -
25/08:00pm 28.2 29.7 21.2 65 4.7 NNW 15 20 8 11 1012.8 - -
25/07:30pm 28.3 29.7 21.1 65 4.8 NNW 15 19 8 10 1012.4 - -
25/07:00pm 28.4 30.4 22.2 69 4.2 NNW 15 20 8 11 1012.1 - -
25/06:30pm 28.7 30.6 22.0 67 4.5 NW 15 20 8 11 1011.9 - -
25/06:00pm 29.4 31.1 22.4 66 4.8 NW 17 24 9 13 1011.6 1011.5 -
25/05:30pm 30.1 31.6 22.0 62 5.5 NNW 17 24 9 13 1011.3 - -
25/05:00pm 30.8 32.5 22.4 61 5.7 NNW 17 20 9 11 1011.2 - -
25/04:30pm 31.0 32.3 22.3 60 5.9 NNW 19 24 10 13 1011.2 - -
25/04:00pm 31.9 33.3 22.6 58 6.4 NW 19 24 10 13 1011.4 - -
25/03:30pm 31.7 32.1 22.4 58 6.3 WNW 24 32 13 17 1011.4 - -
25/03:00pm 32.7 33.6 20.9 49 7.9 WSW 17 28 9 15 1011.6 1011.5 -
25/02:30pm 32.9 33.9 21.7 51 7.6 SSW 19 32 10 17 1011.9 - -
25/02:00pm 33.0 34.1 21.2 50 8.0 S 17 33 9 18 1012.1 - -
25/01:30pm 32.2 33.2 21.1 52 7.5 S 17 28 9 15 1012.7 - -
25/01:00pm 33.4 35.0 21.5 49 8.1 ESE 15 26 8 14 1012.9 - -
25/12:30pm 31.1 33.9 21.6 57 6.4 NW 9 13 5 7 1013.6 - -
25/12:00pm 31.9 33.9 22.3 56 6.5 NNW 15 20 8 11 1013.9 1013.8 -
25/11:30am 31.7 33.9 21.2 53 7.1 WNW 11 19 6 10 1014.3 - -
25/11:00am 30.8 33.6 21.6 58 6.2 WNW 9 15 5 8 1014.5 - -
25/10:30am 30.3 32.1 21.1 58 6.1 WNW 13 32 7 17 1014.8 - -
25/10:00am 30.9 33.8 21.1 56 6.6 NE 7 11 4 6 1015.2 - -
25/09:30am 30.9 33.1 21.1 56 6.6 NNE 11 20 6 11 1015.4 - -
25/09:00am 29.4 32.1 21.4 62 5.4 N 9 11 5 6 1015.6 1015.5 -
25/08:30am 28.9 31.8 21.1 62 5.2 NE 7 11 4 6 1015.6 - -
25/08:00am 27.6 31.2 22.3 73 3.6 E 7 11 4 6 1015.5 - -
25/07:30am 25.2 29.1 22.5 85 1.8 ESE 6 9 3 5 1015.1 - -
25/07:00am 23.1 26.1 21.2 89 1.2 ESE 7 11 4 6 1014.7 - -
25/06:30am 22.7 25.4 20.6 88 1.4 E 7 11 4 6 1014.3 - -
25/06:00am 22.6 24.9 19.9 85 1.7 ESE 7 9 4 5 1014.1 1014.0 -
25/05:30am 23.5 26.3 20.8 85 1.8 E 7 9 4 5 1013.8 - -
25/05:00am 24.2 26.9 21.3 84 1.9 E 9 11 5 6 1013.6 - -
25/04:30am 24.2 26.9 21.3 84 1.9 E 9 13 5 7 1013.3 - -
25/04:00am 23.7 26.6 21.0 85 1.8 ESE 7 9 4 5 1013.0 - -
25/03:30am 23.3 25.5 19.7 80 2.3 ESE 7 9 4 5 1012.5 - -
25/03:00am 24.7 27.1 20.0 75 3.0 E 7 9 4 5 1012.3 1012.2 -
25/02:30am 26.2 28.7 21.0 73 3.4 NE 9 13 5 7 1012.4 - -
25/02:00am 26.9 29.0 21.0 70 3.9 NE 11 15 6 8 1012.8 - -
25/01:30am 27.3 29.3 21.6 71 3.8 NE 13 20 7 11 1012.9 - -
25/01:00am 27.1 29.0 21.4 71 3.8 NNE 13 24 7 13 1013.1 - -
25/12:30am 27.1 28.7 21.4 71 3.8 NE 15 24 8 13 1013.1 - -
25/12:00am 27.4 28.8 21.9 72 3.7 NNE 17 26 9 14 1013.2 1013.1 -
 
Date/Time
CST
Temp
°C
App
Temp
°C
Dew
Point
Rel
Hum
%
Delta-T
°C
Wind Press
QNH
hPa
Press
MSL
hPa
Rain
since 9 am
mm
Dir
 
Spd
km/h
Gust
km/h
Spd
kts
Gust
kts
24/11:30pm 27.7 29.4 21.7 70 4.0 NNE 15 20 8 11 1013.5 - -
24/11:00pm 27.8 29.5 21.6 69 4.1 NNE 15 22 8 12 1013.7 - -
24/10:30pm 27.8 29.2 21.1 67 4.4 NNE 15 20 8 11 1013.5 - -
24/10:00pm 27.7 29.7 20.8 66 4.6 NE 11 17 6 9 1013.2 - -
24/09:30pm 28.0 29.5 20.6 64 4.9 NNE 13 20 7 11 1012.7 - -
24/09:00pm 28.3 30.2 21.3 65 4.7 NNE 13 20 7 11 1012.3 1012.2 -
24/08:30pm 28.7 30.6 22.0 67 4.5 NNE 15 24 8 13 1011.8 - -
24/08:00pm 28.8 29.9 23.0 71 4.0 NNW 22 28 12 15 1011.4 - -
24/07:30pm 28.6 30.0 22.8 71 3.9 NW 20 26 11 14 1011.1 - -
24/07:00pm 28.6 29.7 22.3 68 4.3 NW 20 26 11 14 1010.9 - -
24/06:30pm 28.8 30.4 23.2 71 3.8 WNW 20 26 11 14 1010.7 - -
24/06:00pm 29.2 30.6 22.9 69 4.3 WNW 20 26 11 14 1010.5 1010.4 -
24/05:30pm 30.1 31.5 22.8 65 5.0 NW 20 28 11 15 1010.1 - -
24/05:00pm 30.9 32.1 22.5 61 5.7 NW 20 26 11 14 1010.1 - -
24/04:30pm 31.7 33.0 22.4 58 6.3 NW 19 22 10 12 1010.2 - -
24/04:00pm 31.5 32.4 21.9 56 6.5 NW 20 24 11 13 1010.3 - -
24/03:30pm 32.0 32.5 22.7 58 6.4 NW 24 30 13 16 1010.4 - -
24/03:00pm 33.1 34.1 22.8 54 7.1 NNW 22 30 12 16 1010.4 1010.3 -
24/02:30pm 34.5 37.2 22.9 51 8.0 N 13 20 7 11 1010.5 - -
24/02:00pm 33.0 35.2 21.2 50 8.0 ENE 11 19 6 10 1010.7 - -
24/01:30pm 32.9 34.0 20.4 47 8.3 SE 15 28 8 15 1011.0 - -
24/01:00pm 33.4 35.4 21.5 49 8.1 ESE 13 24 7 13 1011.5 - -
24/12:30pm 31.3 32.5 20.6 53 7.1 ESE 15 24 8 13 1012.2 - -
24/12:00pm 32.3 34.7 21.5 53 7.3 NNW 11 15 6 8 1012.6 1012.5 -
24/11:30am 31.5 33.4 21.4 55 6.8 W 13 19 7 10 1013.0 - -
24/11:00am 31.7 34.1 21.5 54 6.9 WSW 11 20 6 11 1013.3 - -
24/10:30am 31.3 33.3 21.5 56 6.6 N 13 17 7 9 1013.6 - -
24/10:00am 30.7 32.6 20.6 54 6.7 N 11 13 6 7 1013.8 - -
24/09:30am 29.6 32.1 21.0 60 5.7 N 9 13 5 7 1013.9 - -
24/09:00am 29.4 32.5 21.4 62 5.4 NNE 7 11 4 6 1014.2 1014.1 -
24/08:30am 29.0 32.1 22.2 66 4.6 NE 9 13 5 7 1014.1 - -
24/08:00am 27.5 30.7 22.4 73 3.4 E 9 11 5 6 1013.9 - -
24/07:30am 24.7 28.8 22.9 90 1.2 ESE 6 9 3 5 1013.7 - -
24/07:00am 22.5 25.3 20.8 90 1.1 ESE 7 9 4 5 1013.5 - -
24/06:30am 21.9 24.3 20.0 89 1.2 E 7 9 4 5 1013.5 - -
24/06:00am 23.0 25.9 21.1 89 1.2 E 7 9 4 5 1013.3 1013.2 -
24/05:30am 23.9 27.0 22.2 90 1.1 E 9 11 5 6 1013.0 - -
24/05:00am 23.6 26.5 21.7 89 1.3 E 9 15 5 8 1012.8 - -
24/04:30am 23.7 26.5 21.6 88 1.4 E 9 11 5 6 1012.6 - -
24/04:00am 23.6 26.4 21.5 88 1.4 ESE 9 13 5 7 1012.5 - -
24/03:30am 23.4 25.9 21.1 87 1.5 ESE 9 11 5 6 1012.3 - -
24/03:00am 23.8 26.9 21.5 87 1.5 E 7 9 4 5 1012.3 1012.2 -
24/02:30am 23.8 26.7 21.7 88 1.4 ESE 9 11 5 6 1012.7 - -
24/02:00am 23.3 26.0 20.6 85 1.8 E 7 9 4 5 1012.8 - -
24/01:30am 23.7 26.4 20.6 83 2.0 ESE 7 9 4 5 1013.2 - -
24/01:00am 24.1 26.6 20.2 79 2.5 SE 7 9 4 5 1013.2 - -
24/12:30am 25.8 28.7 21.0 75 3.2 E 7 9 4 5 1013.6 - -
24/12:00am 27.2 30.0 21.5 71 3.8 NE 9 15 5 8 1013.5 1013.4 -
 
Date/Time
CST
Temp
°C
App
Temp
°C
Dew
Point
Rel
Hum
%
Delta-T
°C
Wind Press
QNH
hPa
Press
MSL
hPa
Rain
since 9 am
mm
Dir
 
Spd
km/h
Gust
km/h
Spd
kts
Gust
kts
23/11:30pm 27.8 30.1 22.1 71 3.8 NNE 13 19 7 10 1013.6 - -
23/11:00pm 28.2 30.7 22.4 71 3.9 N 13 17 7 9 1013.9 - -
23/10:30pm 28.2 30.1 22.0 69 4.2 N 15 20 8 11 1013.6 - -
23/10:00pm 28.4 30.8 22.2 69 4.2 NNW 13 20 7 11 1013.3 - -
23/09:30pm 28.3 30.3 21.6 67 4.5 NNW 13 17 7 9 1012.8 - -
23/09:00pm 28.2 30.3 21.7 68 4.4 NNW 13 20 7 11 1012.5 1012.4 -
23/08:30pm 28.1 30.4 22.1 70 4.0 NNW 13 19 7 10 1012.0 - -
23/08:00pm 28.1 30.3 22.6 72 3.7 NW 15 19 8 10 1011.8 - -
23/07:30pm 28.1 30.3 22.6 72 3.7 WNW 15 20 8 11 1011.5 - -
23/07:00pm 28.2 29.9 22.4 71 3.9 WNW 17 20 9 11 1011.2 - -
23/06:30pm 28.6 30.4 22.6 70 4.1 WNW 17 20 9 11 1010.9 - -
23/06:00pm 29.4 31.4 22.9 68 4.4 WNW 17 19 9 10 1010.4 1010.3 -

Other Formats:

Comma delimited format used in spreadsheet applications
http://www.bom.gov.au/fwo/IDD60801/IDD60801.94122.axf

JavaScript Object Notation format (JSON) in row-major order
http://www.bom.gov.au/fwo/IDD60801/IDD60801.94122.json